Time;durP1;ratioP1;P1;durP2;ratioP2;P2;SDS_P1;SDS_P2;PMS_P1;PMS_P2;Temp;Humidity;BMP_temperature;BMP_pressure;BME280_temperature;BME280_humidity;BME280_pressure;Samples;Min_cycle;Max_cycle;Signal;HPM_P1;HPM_P2
2021/07/21 00:01:26;;;;;;;6.87;4.40;;;19.40;81.70;;;;;;5050656;28;20564;-72
2021/07/21 00:04:10;;;;;;;7.05;4.65;;;19.40;82.10;;;;;;5050271;28;20169;-72
2021/07/21 00:06:55;;;;;;;5.75;4.32;;;19.40;82.30;;;;;;5038472;28;20039;-72
2021/07/21 00:09:39;;;;;;;7.50;5.15;;;19.40;82.40;;;;;;5051405;28;20652;-72
2021/07/21 00:15:29;;;;;;;11.40;5.10;;;19.40;82.50;;;;;;5051568;28;20035;-72
2021/07/21 00:18:22;;;;;;;7.45;5.00;;;19.30;83.00;;;;;;5053470;28;20043;-72
2021/07/21 00:21:06;;;;;;;10.48;5.43;;;19.30;82.90;;;;;;5051107;28;20112;-72
2021/07/21 00:23:50;;;;;;;7.37;4.80;;;19.30;83.00;;;;;;5052460;28;20547;-72
2021/07/21 00:26:34;;;;;;;7.25;4.65;;;19.30;83.10;;;;;;5033196;28;20283;-72
2021/07/21 00:29:18;;;;;;;8.18;4.45;;;19.30;83.20;;;;;;5035974;28;20043;-72
2021/07/21 00:32:04;;;;;;;6.33;4.80;;;19.30;83.50;;;;;;5052978;28;20408;-72
2021/07/21 00:34:48;;;;;;;7.13;5.55;;;19.30;83.60;;;;;;5050790;28;20081;-72
2021/07/21 00:37:32;;;;;;;7.63;4.70;;;19.20;83.50;;;;;;5051782;28;20035;-72
2021/07/21 00:40:16;;;;;;;9.48;4.97;;;19.20;83.70;;;;;;5051493;28;20036;-72
2021/07/21 00:43:01;;;;;;;7.82;5.10;;;19.10;84.00;;;;;;5052830;28;20074;-72
2021/07/21 00:45:45;;;;;;;8.77;5.03;;;19.10;84.30;;;;;;5050879;28;20039;-72
2021/07/21 00:48:29;;;;;;;7.60;5.50;;;19.00;84.50;;;;;;5051569;28;20056;-71
2021/07/21 00:51:13;;;;;;;8.23;4.90;;;18.90;84.90;;;;;;5037088;28;20539;-72
2021/07/21 00:53:58;;;;;;;10.93;5.50;;;18.90;84.90;;;;;;5050846;28;20044;-73
2021/07/21 00:56:43;;;;;;;7.43;5.18;;;18.90;85.20;;;;;;5052653;28;20151;-73
2021/07/21 00:59:31;;;;;;;7.00;4.95;;;18.80;85.40;;;;;;5050622;28;20037;-73
2021/07/21 01:02:17;;;;;;;8.45;5.40;;;18.80;85.60;;;;;;5037350;28;20029;-72
2021/07/21 01:05:08;;;;;;;7.88;4.95;;;18.80;86.00;;;;;;5049619;28;20025;-72
2021/07/21 01:07:55;;;;;;;9.73;5.25;;;18.90;86.20;;;;;;5052356;28;20033;-71
2021/07/21 01:10:47;;;;;;;7.60;5.47;;;18.80;86.10;;;;;;5050419;28;20037;-71
2021/07/21 01:13:51;;;;;;;6.78;4.95;;;18.90;86.20;;;;;;5052190;28;20041;-71
2021/07/21 01:16:43;;;;;;;7.25;4.93;;;18.90;86.40;;;;;;5032335;28;20045;-71
2021/07/21 01:20:06;;;;;;;8.35;5.30;;;18.90;86.40;;;;;;5035013;28;20032;-72
2021/07/21 01:23:02;;;;;;;8.02;5.28;;;18.90;86.30;;;;;;5051362;28;20045;-72
2021/07/21 01:26:10;;;;;;;10.00;6.28;;;18.90;86.50;;;;;;5048772;28;20061;-74
2021/07/21 01:28:58;;;;;;;10.73;5.53;;;18.90;86.50;;;;;;5051100;28;20021;-72
2021/07/21 01:31:46;;;;;;;8.30;6.25;;;18.90;86.70;;;;;;5053144;28;20512;-72
2021/07/21 01:34:32;;;;;;;9.63;5.93;;;18.90;86.80;;;;;;5049601;28;20063;-75
2021/07/21 01:37:20;;;;;;;9.23;5.63;;;18.90;86.90;;;;;;5051154;28;20764;-75
2021/07/21 01:40:15;;;;;;;10.43;5.80;;;18.90;87.10;;;;;;5050025;28;20159;-74
2021/07/21 01:43:02;;;;;;;11.10;6.22;;;18.90;87.20;;;;;;5052638;28;20056;-74
2021/07/21 01:45:51;;;;;;;10.32;5.80;;;18.90;87.30;;;;;;5050637;28;20086;-71
2021/07/21 01:48:42;;;;;;;8.13;6.00;;;18.80;87.80;;;;;;5050966;28;20045;-71
2021/07/21 01:51:31;;;;;;;8.30;5.53;;;18.80;87.90;;;;;;5049713;28;20033;-71
2021/07/21 01:54:20;;;;;;;8.35;5.55;;;18.70;88.20;;;;;;5051440;28;20037;-71
2021/07/21 01:57:08;;;;;;;7.57;5.43;;;18.70;88.30;;;;;;5049988;28;20045;-71
2021/07/21 01:59:55;;;;;;;8.68;6.15;;;18.70;88.30;;;;;;5051739;28;20032;-71
2021/07/21 02:02:45;;;;;;;8.20;6.07;;;18.80;88.40;;;;;;5048750;28;20020;-71
2021/07/21 02:05:32;;;;;;;9.20;5.18;;;18.80;88.40;;;;;;5050100;28;20400;-72
2021/07/21 02:08:20;;;;;;;10.38;5.53;;;18.80;88.40;;;;;;5048490;28;20021;-71
2021/07/21 02:11:06;;;;;;;8.00;5.93;;;18.70;88.50;;;;;;5052125;28;20106;-72
2021/07/21 02:13:56;;;;;;;8.55;5.93;;;18.70;88.50;;;;;;5049814;28;20452;-71
2021/07/21 02:16:43;;;;;;;8.85;6.22;;;18.70;88.40;;;;;;5051497;28;20033;-72
2021/07/21 02:19:29;;;;;;;8.60;5.85;;;18.70;88.60;;;;;;5051356;28;20035;-71
2021/07/21 02:22:18;;;;;;;8.95;5.70;;;18.70;88.70;;;;;;5049509;28;20036;-71
2021/07/21 02:25:04;;;;;;;9.18;6.40;;;18.70;88.80;;;;;;5051160;28;20039;-72
2021/07/21 02:27:51;;;;;;;10.80;6.18;;;18.70;88.90;;;;;;5042136;28;20484;-71
2021/07/21 02:30:37;;;;;;;8.40;6.18;;;18.80;88.90;;;;;;5031124;28;20040;-71
2021/07/21 02:33:27;;;;;;;9.57;6.78;;;18.70;88.70;;;;;;5043626;28;20130;-71
2021/07/21 02:36:14;;;;;;;9.32;6.65;;;18.70;89.00;;;;;;5052371;28;20048;-71
2021/07/21 02:39:07;;;;;;;20.33;7.03;;;18.70;89.10;;;;;;5033436;28;20026;-71
2021/07/21 02:41:53;;;;;;;9.52;6.03;;;18.70;89.20;;;;;;5027942;28;20566;-71
2021/07/21 02:44:41;;;;;;;12.35;6.97;;;18.70;89.30;;;;;;5032475;28;20037;-71
2021/07/21 02:47:28;;;;;;;11.20;6.07;;;18.70;89.40;;;;;;5049711;28;20390;-71
2021/07/21 02:50:17;;;;;;;8.75;5.78;;;18.60;89.50;;;;;;5043182;28;20417;-71
2021/07/21 02:53:09;;;;;;;8.18;6.03;;;18.70;89.60;;;;;;5038717;28;20076;-71
2021/07/21 02:56:01;;;;;;;8.82;6.57;;;18.60;89.60;;;;;;5051231;28;20033;-76
2021/07/21 02:58:57;;;;;;;10.95;6.55;;;18.70;89.70;;;;;;5049002;28;20432;-74
2021/07/21 03:01:47;;;;;;;9.70;6.18;;;18.70;89.80;;;;;;5049413;28;20091;-76
2021/07/21 03:04:33;;;;;;;8.18;6.13;;;18.60;89.70;;;;;;5051271;28;20051;-76
2021/07/21 03:07:20;;;;;;;10.15;6.65;;;18.60;90.00;;;;;;5048923;28;20032;-74
2021/07/21 03:10:06;;;;;;;10.50;6.45;;;18.60;90.00;;;;;;5036073;28;20044;-75
2021/07/21 03:12:57;;;;;;;8.38;6.03;;;18.60;90.00;;;;;;5049375;28;20094;-72
2021/07/21 03:15:42;;;;;;;8.02;6.07;;;18.60;90.00;;;;;;5051259;28;20099;-72
2021/07/21 03:18:29;;;;;;;9.65;6.68;;;18.60;90.00;;;;;;5038507;28;20044;-72
2021/07/21 03:21:15;;;;;;;10.13;6.60;;;18.60;90.00;;;;;;5019075;28;20036;-72
2021/07/21 03:24:01;;;;;;;10.32;6.00;;;18.70;90.10;;;;;;5049160;28;20036;-72
2021/07/21 03:26:48;;;;;;;10.23;5.97;;;18.70;90.20;;;;;;5050998;28;20085;-70
2021/07/21 03:29:33;;;;;;;8.80;5.88;;;18.70;90.20;;;;;;5030755;28;20081;-71
2021/07/21 03:32:19;;;;;;;8.85;5.95;;;18.70;90.10;;;;;;5017497;28;20520;-71
2021/07/21 03:35:06;;;;;;;10.82;6.53;;;18.80;90.20;;;;;;5045533;28;20805;-70
2021/07/21 03:37:50;;;;;;;8.88;6.47;;;18.80;90.20;;;;;;5035829;28;20490;-72
2021/07/21 03:40:35;;;;;;;9.30;6.93;;;18.90;90.20;;;;;;5054411;28;20124;-72
2021/07/21 03:43:22;;;;;;;9.07;7.00;;;18.90;90.20;;;;;;5052442;28;20171;-69
2021/07/21 03:46:06;;;;;;;10.38;6.72;;;18.90;90.20;;;;;;5054223;28;20043;-68
2021/07/21 03:48:50;;;;;;;8.75;6.13;;;18.90;90.20;;;;;;5052279;28;20052;-72
2021/07/21 03:51:37;;;;;;;10.10;6.47;;;18.90;90.20;;;;;;5033794;28;20047;-73
2021/07/21 03:54:22;;;;;;;9.65;6.43;;;18.80;90.30;;;;;;5053629;28;20068;-72
2021/07/21 03:57:07;;;;;;;9.50;6.28;;;18.80;90.30;;;;;;5037658;28;20588;-72
2021/07/21 03:59:52;;;;;;;9.45;6.22;;;18.90;90.30;;;;;;5034172;28;20511;-71
2021/07/21 04:02:36;;;;;;;8.52;5.95;;;18.90;90.40;;;;;;5038867;28;20437;-75
2021/07/21 04:05:24;;;;;;;10.20;6.65;;;19.00;90.40;;;;;;5051852;28;20094;-79
2021/07/21 04:08:08;;;;;;;11.70;7.00;;;19.00;90.40;;;;;;5044277;28;20032;-78
2021/07/21 04:10:53;;;;;;;10.53;6.83;;;19.10;90.30;;;;;;5034006;28;20068;-73
2021/07/21 04:13:36;;;;;;;;;;;19.10;90.30;;;;;;5046726;28;20068;-73
2021/07/21 04:16:21;;;;;;;9.00;5.45;;;19.10;90.20;;;;;;5060742;28;19963;-73
2021/07/21 04:19:09;;;;;;;9.35;6.10;;;19.10;90.30;;;;;;5029244;28;20098;-72
2021/07/21 04:21:54;;;;;;;9.38;6.55;;;19.10;90.30;;;;;;5037925;28;20044;-72
2021/07/21 04:24:38;;;;;;;10.48;6.57;;;19.10;90.40;;;;;;5033849;28;20136;-72
2021/07/21 04:27:23;;;;;;;9.15;6.65;;;19.10;90.40;;;;;;5036267;28;20041;-72
2021/07/21 04:30:09;;;;;;;11.23;6.43;;;19.20;90.40;;;;;;5053678;28;20075;-72
2021/07/21 04:32:54;;;;;;;10.65;6.53;;;19.20;90.40;;;;;;5052012;28;20052;-72
2021/07/21 04:35:38;;;;;;;10.27;6.25;;;19.30;90.40;;;;;;5052390;28;20124;-72
2021/07/21 04:38:24;;;;;;;9.40;6.25;;;19.30;90.40;;;;;;5052245;28;20040;-72
2021/07/21 04:41:09;;;;;;;11.40;6.75;;;19.40;90.40;;;;;;5053468;28;20455;-73
2021/07/21 04:43:55;;;;;;;9.45;5.80;;;19.40;90.40;;;;;;5051452;28;20079;-72
2021/07/21 04:46:39;;;;;;;7.97;5.97;;;19.50;90.20;;;;;;5037956;28;20098;-72
2021/07/21 04:49:24;;;;;;;8.80;6.50;;;19.50;90.20;;;;;;5052151;28;20052;-72
2021/07/21 04:52:12;;;;;;;10.35;6.40;;;19.50;90.20;;;;;;5035699;28;20390;-72
2021/07/21 04:54:56;;;;;;;8.13;6.00;;;19.50;90.20;;;;;;5040603;28;20039;-72
2021/07/21 04:57:48;;;;;;;9.88;6.13;;;19.60;90.20;;;;;;5048790;28;20033;-71
2021/07/21 05:00:35;;;;;;;10.48;6.63;;;19.50;90.10;;;;;;5042041;28;20037;-71
2021/07/21 05:03:22;;;;;;;10.43;5.97;;;19.50;90.10;;;;;;5045018;28;20075;-71
2021/07/21 05:06:08;;;;;;;9.27;5.82;;;19.50;90.00;;;;;;5031496;28;20053;-71
2021/07/21 05:08:54;;;;;;;8.35;5.45;;;19.60;90.10;;;;;;5048071;28;20036;-71
2021/07/21 05:11:40;;;;;;;9.82;5.75;;;19.70;90.10;;;;;;5051632;28;20457;-71
2021/07/21 05:14:26;;;;;;;11.23;6.28;;;19.60;90.10;;;;;;5031558;28;20041;-71
2021/07/21 05:17:11;;;;;;;8.07;6.10;;;19.70;90.10;;;;;;5034386;28;20773;-72
2021/07/21 05:19:57;;;;;;;9.70;6.28;;;19.70;90.10;;;;;;5065322;28;20649;-70
2021/07/21 05:22:47;;;;;;;13.27;6.65;;;19.70;90.00;;;;;;5062685;28;20040;-72
2021/07/21 05:25:35;;;;;;;11.82;5.88;;;19.70;90.10;;;;;;5050669;28;20607;-72
2021/07/21 05:28:21;;;;;;;9.65;5.88;;;19.80;90.10;;;;;;5048638;28;20091;-73
2021/07/21 05:31:07;;;;;;;8.52;6.10;;;19.80;90.00;;;;;;5051341;28;20029;-73
2021/07/21 05:33:53;;;;;;;8.25;5.82;;;19.80;90.00;;;;;;5047019;28;20073;-71
2021/07/21 05:36:39;;;;;;;10.02;5.70;;;19.80;89.90;;;;;;5051541;28;20029;-72
2021/07/21 05:39:25;;;;;;;8.23;6.05;;;19.90;90.00;;;;;;5032786;28;20409;-70
2021/07/21 05:42:11;;;;;;;10.43;6.03;;;19.90;89.90;;;;;;5032520;28;20033;-72
2021/07/21 05:44:56;;;;;;;9.18;6.75;;;20.00;90.00;;;;;;5052697;28;20021;-71
2021/07/21 05:47:42;;;;;;;12.32;6.03;;;20.00;89.60;;;;;;5050560;28;20025;-74
2021/07/21 05:50:28;;;;;;;11.55;6.35;;;20.00;89.80;;;;;;5052586;28;20080;-74
2021/07/21 05:53:14;;;;;;;8.82;6.00;;;20.10;90.00;;;;;;5050211;28;20493;-73
2021/07/21 05:56:00;;;;;;;9.93;6.05;;;20.10;89.80;;;;;;5050869;28;20048;-76
2021/07/21 05:58:46;;;;;;;8.18;5.82;;;20.10;89.50;;;;;;5048949;28;20060;-77
2021/07/21 06:01:31;;;;;;;9.95;6.28;;;20.20;89.50;;;;;;5046450;28;20025;-76
2021/07/21 06:04:17;;;;;;;8.27;5.97;;;20.20;89.90;;;;;;5049290;28;20040;-76
2021/07/21 06:07:06;;;;;;;8.73;5.70;;;20.40;90.00;;;;;;5049240;28;20029;-76
2021/07/21 06:09:52;;;;;;;13.75;7.15;;;20.50;90.00;;;;;;5041316;28;20060;-72
2021/07/21 06:12:38;;;;;;;9.93;6.93;;;20.70;89.30;;;;;;5046797;28;20519;-72
2021/07/21 06:15:27;;;;;;;10.15;7.05;;;20.80;89.20;;;;;;5049099;28;20021;-72
2021/07/21 06:18:13;;;;;;;10.68;6.78;;;20.90;89.10;;;;;;5048565;28;20108;-71
2021/07/21 06:20:59;;;;;;;10.07;6.05;;;21.00;89.30;;;;;;5044363;28;20547;-71
2021/07/21 06:23:45;;;;;;;12.27;6.95;;;21.10;89.50;;;;;;5043053;28;20400;-72
2021/07/21 06:26:31;;;;;;;9.93;6.15;;;21.30;89.40;;;;;;5047862;28;20092;-71
2021/07/21 06:29:17;;;;;;;11.90;6.55;;;21.30;88.50;;;;;;5048678;28;20393;-72
2021/07/21 06:32:04;;;;;;;9.75;6.50;;;21.40;88.70;;;;;;5046051;28;20564;-72
2021/07/21 06:34:50;;;;;;;10.27;6.00;;;21.50;88.20;;;;;;5047307;28;20507;-71
2021/07/21 06:37:36;;;;;;;13.20;6.40;;;21.60;88.80;;;;;;5046697;28;20096;-71
2021/07/21 06:40:22;;;;;;;10.02;5.93;;;21.70;88.90;;;;;;5049346;28;20032;-71
2021/07/21 06:43:08;;;;;;;9.98;6.47;;;21.80;88.40;;;;;;5040391;28;20064;-71
2021/07/21 06:45:54;;;;;;;8.32;5.93;;;22.00;87.90;;;;;;5041845;28;20037;-72
2021/07/21 06:48:40;;;;;;;8.73;5.40;;;22.10;87.20;;;;;;5049040;28;20611;-72
2021/07/21 06:51:26;;;;;;;10.85;7.38;;;22.10;86.00;;;;;;5027725;28;20021;-72
2021/07/21 06:54:10;;;;;;;8.15;5.85;;;22.20;85.70;;;;;;5049630;28;20052;-72
2021/07/21 06:56:54;;;;;;;8.18;5.57;;;22.30;85.50;;;;;;5050703;28;20571;-71
2021/07/21 06:59:39;;;;;;;8.85;4.82;;;22.30;84.40;;;;;;5046678;28;20500;-71
2021/07/21 07:02:23;;;;;;;10.43;5.80;;;22.30;85.00;;;;;;5041309;28;20092;-71
2021/07/21 07:05:07;;;;;;;7.80;5.67;;;22.40;85.10;;;;;;5043013;28;20060;-71
2021/07/21 07:07:51;;;;;;;7.28;5.15;;;22.50;85.00;;;;;;5049767;28;20417;-71
2021/07/21 07:10:35;;;;;;;9.52;5.38;;;22.50;82.40;;;;;;5048474;28;20621;-71
2021/07/21 07:13:19;;;;;;;8.18;5.90;;;22.50;83.60;;;;;;5049066;28;20097;-72
2021/07/21 07:16:04;;;;;;;7.47;5.05;;;22.60;84.30;;;;;;5047966;28;20114;-71
2021/07/21 07:18:48;;;;;;;8.68;5.32;;;22.70;82.80;;;;;;5050798;28;20079;-72
2021/07/21 07:21:32;;;;;;;6.37;4.70;;;22.70;83.00;;;;;;5037184;28;20451;-72
2021/07/21 07:24:16;;;;;;;10.77;6.10;;;22.90;82.10;;;;;;5038027;28;20090;-72
2021/07/21 07:27:01;;;;;;;6.05;4.30;;;22.90;81.40;;;;;;5044113;28;22686;-71
2021/07/21 07:29:46;;;;;;;8.93;5.32;;;23.00;80.00;;;;;;5051450;28;20048;-71
2021/07/21 07:32:30;;;;;;;8.75;4.45;;;22.90;78.90;;;;;;5049874;28;20028;-71
2021/07/21 07:35:15;;;;;;;6.85;4.97;;;22.80;78.90;;;;;;5047210;28;20040;-72
2021/07/21 07:38:00;;;;;;;7.10;4.68;;;22.80;79.70;;;;;;5042847;28;20040;-71
2021/07/21 07:40:44;;;;;;;7.72;5.10;;;22.80;80.20;;;;;;5053277;28;20120;-75
2021/07/21 07:43:28;;;;;;;6.80;5.05;;;22.90;80.80;;;;;;5034511;28;20024;-71
2021/07/21 07:46:12;;;;;;;6.68;4.90;;;23.00;78.90;;;;;;5036776;28;20052;-71
2021/07/21 07:48:57;;;;;;;7.60;4.75;;;23.10;78.00;;;;;;5050854;28;20098;-71
2021/07/21 07:51:41;;;;;;;9.93;5.00;;;23.20;79.60;;;;;;5031414;28;20044;-70
2021/07/21 07:54:26;;;;;;;5.97;4.10;;;23.30;79.60;;;;;;5050083;28;20087;-70
2021/07/21 07:57:11;;;;;;;6.15;4.53;;;23.50;77.60;;;;;;5049939;28;20368;-70
2021/07/21 07:59:55;;;;;;;6.38;4.00;;;23.60;76.20;;;;;;5051940;28;20097;-72
2021/07/21 08:02:39;;;;;;;6.50;4.03;;;23.60;76.00;;;;;;5041630;28;20122;-72
2021/07/21 08:05:23;;;;;;;7.20;4.50;;;23.70;75.90;;;;;;5051242;28;21040;-72
2021/07/21 08:08:07;;;;;;;6.03;4.47;;;23.80;75.40;;;;;;5050603;28;20036;-72
2021/07/21 08:10:52;;;;;;;6.95;5.35;;;23.90;76.00;;;;;;5030512;28;20045;-71
2021/07/21 08:13:37;;;;;;;9.05;5.25;;;24.00;76.90;;;;;;5049185;28;20077;-72
2021/07/21 08:16:21;;;;;;;7.47;4.82;;;24.10;76.00;;;;;;5050919;28;20365;-72
2021/07/21 08:19:06;;;;;;;;;;;24.20;76.30;;;;;;5049049;28;20138;-72
2021/07/21 08:21:51;;;;;;;9.73;5.55;;;24.30;76.30;;;;;;5044134;28;20432;-73
2021/07/21 08:24:35;;;;;;;6.38;4.13;;;24.40;74.50;;;;;;5038716;28;20043;-73
2021/07/21 08:27:19;;;;;;;6.78;4.68;;;24.40;72.90;;;;;;5045599;28;20392;-72
2021/07/21 08:30:09;;;;;;;5.65;4.10;;;24.40;72.10;;;;;;5052692;28;20531;-74
2021/07/21 08:32:54;;;;;;;7.22;4.72;;;24.40;71.80;;;;;;5053627;28;20140;-73
2021/07/21 08:35:39;;;;;;;6.65;4.70;;;24.40;72.30;;;;;;5053281;28;20036;-73
2021/07/21 08:38:23;;;;;;;6.88;4.88;;;24.50;73.10;;;;;;5052194;28;20128;-73
2021/07/21 08:41:07;;;;;;;8.82;5.65;;;24.50;72.60;;;;;;5053014;28;20040;-73
2021/07/21 08:43:52;;;;;;;7.93;4.88;;;24.50;72.00;;;;;;5053404;28;20052;-73
2021/07/21 08:46:37;;;;;;;;;;;24.50;72.80;;;;;;5053458;28;20028;-73
2021/07/21 08:49:21;;;;;;;6.88;4.05;;;24.50;72.30;;;;;;5052599;28;19963;-73
2021/07/21 08:52:07;;;;;;;7.13;4.13;;;24.50;72.20;;;;;;5053309;28;20499;-75
2021/07/21 08:54:58;;;;;;;8.52;5.35;;;24.50;71.80;;;;;;5053128;28;20057;-72
2021/07/21 08:57:42;;;;;;;6.25;4.30;;;24.40;71.00;;;;;;5053182;28;20032;-72
2021/07/21 09:00:29;;;;;;;8.88;4.63;;;24.30;70.70;;;;;;5053018;28;20029;-72
2021/07/21 09:03:15;;;;;;;8.85;4.70;;;24.40;71.40;;;;;;5051216;28;20061;-72
2021/07/21 09:06:01;;;;;;;6.78;4.38;;;24.40;72.30;;;;;;5052385;28;20118;-72
2021/07/21 09:08:47;;;;;;;7.93;4.45;;;24.50;71.50;;;;;;5052279;28;20032;-72
2021/07/21 09:11:33;;;;;;;5.97;4.57;;;24.50;71.40;;;;;;5050284;28;20037;-72
2021/07/21 09:14:20;;;;;;;7.28;4.57;;;24.50;70.80;;;;;;5052194;28;20040;-72
2021/07/21 09:17:12;;;;;;;7.60;4.07;;;24.60;71.00;;;;;;5030903;28;20476;-72
2021/07/21 09:19:59;;;;;;;6.57;4.45;;;24.50;70.30;;;;;;5032309;28;20109;-72
2021/07/21 09:22:52;;;;;;;5.72;4.13;;;24.50;71.80;;;;;;5033431;28;20449;-72
2021/07/21 09:25:40;;;;;;;7.80;4.50;;;24.50;71.30;;;;;;5051685;28;20025;-72
2021/07/21 09:28:38;;;;;;;9.82;4.75;;;24.40;71.00;;;;;;5049857;28;20037;-72
2021/07/21 09:31:39;;;;;;;7.40;4.20;;;24.40;72.40;;;;;;5049467;28;20027;-72
2021/07/21 09:34:26;;;;;;;5.50;4.22;;;24.50;72.50;;;;;;5049678;28;20622;-72
2021/07/21 09:37:12;;;;;;;5.60;4.00;;;24.50;71.80;;;;;;5049961;28;20020;-72
2021/07/21 09:40:02;;;;;;;6.47;3.75;;;24.60;70.30;;;;;;5049990;28;20109;-72
2021/07/21 09:42:47;;;;;;;5.18;3.70;;;24.70;69.80;;;;;;5051995;28;20040;-72
2021/07/21 09:45:37;;;;;;;5.75;3.42;;;24.80;70.30;;;;;;5035935;28;20033;-72
2021/07/21 09:48:49;;;;;;;4.70;3.03;;;24.90;68.90;;;;;;5049780;28;20053;-72
2021/07/21 09:51:38;;;;;;;5.85;3.72;;;25.00;68.00;;;;;;5036971;28;20029;-72
2021/07/21 09:54:24;;;;;;;6.80;3.15;;;25.10;68.20;;;;;;5050035;28;20032;-72
2021/07/21 09:57:13;;;;;;;4.15;3.38;;;25.10;67.50;;;;;;5046944;28;20021;-72
2021/07/21 10:00:00;;;;;;;5.18;3.22;;;25.20;67.30;;;;;;5050985;28;20032;-72
2021/07/21 10:02:47;;;;;;;5.53;3.28;;;25.30;67.70;;;;;;5050997;28;20021;-72
2021/07/21 10:05:34;;;;;;;5.82;3.75;;;25.40;68.40;;;;;;5051627;28;20035;-72
2021/07/21 10:08:35;;;;;;;5.20;3.58;;;25.50;68.10;;;;;;5051823;28;20515;-72
2021/07/21 10:11:36;;;;;;;5.82;3.33;;;25.60;66.70;;;;;;5062138;28;20029;-71
2021/07/21 10:14:22;;;;;;;4.45;2.97;;;25.70;65.90;;;;;;5051920;28;20041;-72
2021/07/21 10:17:15;;;;;;;4.95;3.20;;;25.70;65.80;;;;;;5069758;28;20043;-72
2021/07/21 10:20:03;;;;;;;6.38;3.45;;;25.70;65.50;;;;;;5060861;28;20021;-72
2021/07/21 10:22:49;;;;;;;4.40;3.55;;;25.60;65.40;;;;;;5047805;28;20115;-72
2021/07/21 10:25:38;;;;;;;4.13;3.15;;;25.60;64.50;;;;;;5051284;28;20562;-72
2021/07/21 10:28:24;;;;;;;4.07;3.10;;;25.60;65.20;;;;;;5048464;28;20033;-72
2021/07/21 10:31:10;;;;;;;4.40;2.67;;;25.70;63.90;;;;;;5045498;28;20108;-71
2021/07/21 10:33:56;;;;;;;5.70;3.10;;;25.70;61.00;;;;;;5045987;28;20041;-73
2021/07/21 10:36:43;;;;;;;3.97;2.45;;;25.80;60.90;;;;;;5050629;28;20036;-72
2021/07/21 10:39:32;;;;;;;6.32;3.42;;;25.80;58.30;;;;;;5049563;28;20029;-71
2021/07/21 10:42:19;;;;;;;3.78;2.83;;;25.70;59.70;;;;;;5047568;28;20472;-74
2021/07/21 10:45:16;;;;;;;5.43;2.83;;;25.70;58.70;;;;;;5039909;28;20063;-71
2021/07/21 10:48:16;;;;;;;5.68;2.83;;;25.70;57.60;;;;;;5048540;28;20565;-73
2021/07/21 10:51:13;;;;;;;4.95;2.78;;;25.50;57.40;;;;;;5055050;28;20029;-73
2021/07/21 10:53:51;;;;;;;3.83;2.47;;;25.30;58.30;;;;;;5049591;28;20448;-72
2021/07/21 10:59:11;;;;;;;3.65;2.42;;;25.40;59.60;;;;;;5055302;28;20090;-69
2021/07/21 10:59:51;;;;;;;3.60;2.58;;;25.50;60.30;;;;;;5055025;28;20061;-74
2021/07/21 11:02:35;;;;;;;3.78;2.65;;;25.50;58.00;;;;;;5054520;28;20039;-72
2021/07/21 11:05:33;;;;;;;3.50;2.58;;;25.50;59.10;;;;;;5051891;28;20539;-70
2021/07/21 11:08:22;;;;;;;5.43;2.97;;;25.50;59.10;;;;;;5044108;28;20056;-69
2021/07/21 11:11:17;;;;;;;4.25;2.45;;;25.60;59.00;;;;;;5049341;28;20510;-70
2021/07/21 11:14:01;;;;;;;6.20;2.97;;;25.60;58.50;;;;;;5040382;28;20040;-70
2021/07/21 11:16:52;;;;;;;4.53;2.50;;;25.60;60.10;;;;;;5045102;28;20098;-70
2021/07/21 11:19:50;;;;;;;4.60;2.63;;;25.70;58.20;;;;;;5051807;28;20473;-70
2021/07/21 11:22:36;;;;;;;4.30;2.60;;;25.70;58.60;;;;;;5034729;28;20124;-70
2021/07/21 11:25:23;;;;;;;4.45;2.83;;;25.70;59.70;;;;;;5051635;28;20036;-70
2021/07/21 11:28:10;;;;;;;4.72;2.55;;;25.70;59.40;;;;;;5044037;28;20036;-70
2021/07/21 11:30:58;;;;;;;3.72;2.42;;;25.70;58.90;;;;;;5050438;28;20090;-69
2021/07/21 11:33:55;;;;;;;4.68;2.63;;;25.70;58.80;;;;;;5045777;28;20044;-68
2021/07/21 11:36:39;;;;;;;3.72;2.42;;;25.70;58.40;;;;;;5048448;28;20059;-69
2021/07/21 11:39:44;;;;;;;5.90;2.65;;;25.60;58.70;;;;;;5052547;28;20048;-70
2021/07/21 11:42:34;;;;;;;3.58;2.45;;;25.50;57.40;;;;;;5050125;28;20032;-69
2021/07/21 11:45:05;;;;;;;5.88;2.90;;;25.50;57.50;;;;;;5023064;28;20516;-70
2021/07/21 11:47:34;;;;;;;4.93;2.85;;;25.40;57.70;;;;;;5049851;28;20036;-70
2021/07/21 11:50:20;;;;;;;5.15;2.60;;;25.40;58.40;;;;;;5051415;28;20540;-70
2021/07/21 11:52:54;;;;;;;4.25;2.78;;;25.40;59.70;;;;;;5051632;28;20033;-70
2021/07/21 11:55:28;;;;;;;4.47;3.10;;;25.40;60.00;;;;;;5051756;28;20082;-71
2021/07/21 11:57:55;;;;;;;4.13;2.78;;;25.50;60.60;;;;;;5050864;28;20033;-71
2021/07/21 12:00:23;;;;;;;4.85;3.40;;;25.50;60.60;;;;;;5049402;28;20036;-71
2021/07/21 12:03:00;;;;;;;5.72;2.88;;;25.50;60.10;;;;;;5032871;28;20477;-71
2021/07/21 12:05:27;;;;;;;6.22;2.78;;;25.40;60.30;;;;;;5051307;28;20025;-71
2021/07/21 12:07:53;;;;;;;3.97;2.75;;;25.40;59.70;;;;;;5048876;28;20504;-71
2021/07/21 12:10:19;;;;;;;3.13;2.33;;;25.40;59.40;;;;;;5033737;28;20048;-71
2021/07/21 12:12:45;;;;;;;5.57;2.67;;;25.30;58.90;;;;;;5050417;28;20083;-71
2021/07/21 12:15:15;;;;;;;5.28;2.38;;;25.30;58.90;;;;;;5056269;28;20104;-70
2021/07/21 12:18:14;;;;;;;3.20;2.30;;;25.20;59.00;;;;;;5049744;28;20090;-71
2021/07/21 12:21:08;;;;;;;4.78;2.50;;;25.20;58.60;;;;;;5048609;28;20035;-70
2021/07/21 12:23:58;;;;;;;4.25;2.58;;;25.10;58.10;;;;;;5049926;28;20108;-71
2021/07/21 12:26:45;;;;;;;4.20;2.90;;;25.10;59.30;;;;;;5053872;28;20082;-71
2021/07/21 12:29:29;;;;;;;4.72;2.35;;;25.10;59.20;;;;;;5033280;28;20084;-71
2021/07/21 12:32:18;;;;;;;4.40;2.67;;;25.00;59.10;;;;;;5033932;28;20055;-71
2021/07/21 12:35:04;;;;;;;4.88;2.75;;;25.00;60.20;;;;;;5032806;28;20048;-71
2021/07/21 12:37:51;;;;;;;3.88;2.60;;;25.00;60.40;;;;;;5033592;28;20559;-71
2021/07/21 12:40:36;;;;;;;3.85;2.40;;;25.00;59.40;;;;;;5037624;28;20075;-71
2021/07/21 12:43:25;;;;;;;6.20;2.95;;;24.90;60.00;;;;;;5051195;28;20043;-71
2021/07/21 12:46:17;;;;;;;4.03;2.72;;;24.90;60.60;;;;;;5049688;28;20102;-70
2021/07/21 12:49:02;;;;;;;4.95;3.13;;;24.90;60.70;;;;;;5017945;28;20495;-75
2021/07/21 12:51:46;;;;;;;3.83;2.53;;;25.00;60.60;;;;;;5006653;28;20140;-73
2021/07/21 12:54:12;;;;;;;3.85;2.70;;;25.00;60.60;;;;;;5014968;28;20045;-71
2021/07/21 12:56:38;;;;;;;5.30;2.58;;;25.10;60.30;;;;;;5009946;28;20030;-71
2021/07/21 12:59:34;;;;;;;3.67;2.53;;;25.10;60.30;;;;;;5010089;28;20045;-71
2021/07/21 13:02:08;;;;;;;3.92;2.80;;;25.10;60.90;;;;;;5009059;28;20060;-72
2021/07/21 13:04:52;;;;;;;4.22;2.70;;;25.00;60.10;;;;;;5010437;28;20032;-72
2021/07/21 13:07:36;;;;;;;3.90;2.67;;;25.00;60.20;;;;;;5007471;28;20037;-72
2021/07/21 13:10:22;;;;;;;4.13;2.97;;;25.10;60.00;;;;;;5010562;28;20111;-71
2021/07/21 13:12:51;;;;;;;5.05;2.53;;;25.10;61.00;;;;;;4985415;28;20069;-71
2021/07/21 13:15:37;;;;;;;4.68;2.75;;;25.10;60.90;;;;;;5007268;28;20080;-71
2021/07/21 13:18:21;;;;;;;3.78;2.58;;;25.20;61.00;;;;;;5006863;28;20088;-71
2021/07/21 13:21:39;;;;;;;4.30;2.83;;;25.30;60.90;;;;;;5010408;28;20040;-71
2021/07/21 13:24:25;;;;;;;5.18;2.90;;;25.30;60.80;;;;;;5002877;28;20152;-70
2021/07/21 13:27:12;;;;;;;4.90;2.80;;;25.40;61.10;;;;;;5006401;28;20087;-72
2021/07/21 13:29:39;;;;;;;6.03;2.90;;;25.20;61.00;;;;;;5010235;28;20026;-76
2021/07/21 13:32:05;;;;;;;4.95;2.78;;;25.30;62.30;;;;;;5007574;28;20038;-74
2021/07/21 13:34:32;;;;;;;5.28;2.67;;;25.20;61.80;;;;;;5011488;28;20199;-74
2021/07/21 13:37:05;;;;;;;4.45;3.17;;;25.10;61.80;;;;;;5009634;28;20125;-74
2021/07/21 13:39:49;;;;;;;5.07;3.22;;;25.10;62.10;;;;;;5011679;28;20418;-74
2021/07/21 13:42:34;;;;;;;5.35;3.03;;;25.10;62.00;;;;;;5010840;28;20045;-74
2021/07/21 13:45:18;;;;;;;4.53;3.22;;;25.10;62.30;;;;;;5010884;28;20057;-73
2021/07/21 13:48:02;;;;;;;5.47;3.20;;;25.00;62.30;;;;;;5006626;28;20446;-73
2021/07/21 13:51:13;;;;;;;5.65;3.25;;;25.10;62.80;;;;;;5024993;28;20048;-73
2021/07/21 13:53:57;;;;;;;4.63;2.92;;;25.10;62.40;;;;;;5014461;28;20409;-73
2021/07/21 13:56:42;;;;;;;5.40;3.20;;;25.10;62.40;;;;;;5017199;28;20059;-74
2021/07/21 13:59:26;;;;;;;5.35;3.17;;;25.10;61.40;;;;;;5031587;28;20056;-73
2021/07/21 14:02:21;;;;;;;4.45;3.20;;;25.00;61.70;;;;;;5028150;28;20045;-73
2021/07/21 14:05:06;;;;;;;5.15;3.20;;;24.90;62.70;;;;;;5026131;28;20104;-72
2021/07/21 14:07:50;;;;;;;;;;;24.90;62.80;;;;;;5035952;28;20032;-73
2021/07/21 14:10:34;;;;;;;4.90;3.03;;;24.80;62.60;;;;;;5030418;28;19920;-73
2021/07/21 14:13:18;;;;;;;6.28;4.13;;;24.70;63.40;;;;;;5027237;28;20406;-73
2021/07/21 14:16:02;;;;;;;5.68;3.05;;;24.80;64.00;;;;;;5022621;28;20508;-73
2021/07/21 14:18:47;;;;;;;4.72;3.45;;;24.80;64.20;;;;;;5022642;28;20112;-74
2021/07/21 14:21:33;;;;;;;4.97;3.78;;;24.80;64.30;;;;;;5027939;28;20076;-71
2021/07/21 14:24:18;;;;;;;5.63;3.50;;;24.80;64.00;;;;;;5025850;28;20056;-72
2021/07/21 14:27:02;;;;;;;5.72;3.55;;;24.80;64.00;;;;;;5027569;28;20039;-72